Portada
METAR-TAF:

METAR-TAF

Aeroports :

Kuantan, Malàisia

latitud: 03-37N, longitud: 103-13E, altitud: 18 m

Observació

L'informe es va fer fa 1 hora i 4 minuts, a les 22:00 UTC
Vent 4 kt del Nord/Nord-Oest, variant entre Nord-Oest i Nord
Temperatura 25°C
Humitat 94%
Pressió 1013 hPa
Visibilitat: 9000 m
Escasses núvols a una alçada de 600 ft

METAR: WMKD 202200Z 34004KT 310V010 9000 FEW006 25/24 Q1013 NOSIG

Hora: 07:04 (23:04 UTC)


TAF: manca

Observacions i pronòstics meteorològics de més de 4000 aeroports (METAR i TAF).

Les estacions disponibles són els punts grocs i vermells al mapa.

Posi el ratolí al punt desitjat per veure el nom de l'estació.

Feu clic per veure les observacions i els pronòstics meteorològics.

Per canviar el mapa: feu clic els botons verds amb una creu de color negre per apropar; al botó verd amb un guió per allunyar la imatge; o en les fletxes verdes per a mapes adjacents.


METAR-TAF: